createdAt,value
2022-11-13T00:01:13.725Z,92.08
2022-11-13T00:04:00.831Z,91.80
2022-11-13T00:06:48.371Z,91.72
2022-11-13T00:09:35.878Z,91.95
2022-11-13T00:12:22.996Z,92.07
2022-11-13T00:15:10.712Z,91.70
2022-11-13T00:17:59.393Z,92.25
2022-11-13T00:20:46.763Z,91.94
2022-11-13T00:23:34.846Z,91.88
2022-11-13T00:26:24.246Z,91.74
2022-11-13T00:29:11.557Z,91.32
2022-11-13T00:31:59.171Z,91.54
2022-11-13T00:34:48.084Z,91.81
2022-11-13T00:37:35.571Z,91.61
2022-11-13T00:40:23.152Z,91.26
2022-11-13T00:43:10.327Z,91.69
2022-11-13T00:45:57.533Z,92.07
2022-11-13T00:48:44.941Z,92.26
2022-11-13T00:51:33.138Z,92.47
2022-11-13T00:54:20.409Z,92.39
2022-11-13T00:57:07.973Z,92.23
2022-11-13T00:59:55.139Z,92.20
2022-11-13T01:02:42.751Z,92.01
2022-11-13T01:05:29.846Z,92.04
2022-11-13T01:08:17.617Z,92.01
2022-11-13T01:11:11.004Z,92.10
2022-11-13T01:13:57.427Z,92.00
2022-11-13T01:16:44.940Z,92.22
2022-11-13T01:19:32.412Z,92.25
2022-11-13T01:22:19.428Z,92.51
2022-11-13T01:25:07.330Z,92.28
2022-11-13T01:27:54.555Z,92.12
2022-11-13T01:30:41.598Z,92.34
2022-11-13T01:33:29.626Z,92.49
2022-11-13T01:36:19.952Z,92.33
2022-11-13T01:39:07.436Z,92.36
2022-11-13T01:41:55.111Z,92.28
2022-11-13T01:44:58.724Z,92.33
2022-11-13T01:47:45.690Z,91.82
2022-11-13T01:50:33.288Z,92.12
2022-11-13T01:53:21.207Z,92.03
2022-11-13T01:56:08.903Z,92.21
2022-11-13T01:59:08.470Z,92.33
2022-11-13T02:01:57.138Z,92.49
2022-11-13T02:04:45.346Z,92.82
2022-11-13T02:07:32.589Z,92.65
2022-11-13T02:10:19.701Z,92.66
2022-11-13T02:13:07.287Z,92.58
2022-11-13T02:15:54.912Z,92.58
2022-11-13T02:18:42.741Z,92.51
2022-11-13T02:21:32.960Z,92.35
2022-11-13T02:24:32.675Z,92.29
2022-11-13T02:27:32.531Z,92.14
2022-11-13T02:30:28.499Z,92.18
2022-11-13T02:33:30.713Z,92.05
2022-11-13T02:36:18.484Z,92.00
2022-11-13T02:39:09.143Z,92.06
2022-11-13T02:41:56.375Z,92.07
2022-11-13T02:44:43.873Z,92.04
2022-11-13T02:47:30.830Z,92.12
2022-11-13T02:50:19.517Z,92.05
2022-11-13T02:53:07.890Z,92.10
2022-11-13T02:55:55.598Z,92.10
2022-11-13T02:58:43.423Z,92.13
2022-11-13T03:01:30.661Z,92.11
2022-11-13T03:04:18.193Z,92.02
2022-11-13T03:07:05.409Z,91.97
2022-11-13T03:09:52.619Z,92.16
2022-11-13T03:12:40.669Z,92.17
2022-11-13T03:15:28.086Z,92.00
2022-11-13T03:18:15.932Z,92.02
2022-11-13T03:21:12.812Z,91.81
2022-11-13T03:24:00.215Z,91.58
2022-11-13T03:26:47.618Z,91.67
2022-11-13T03:29:34.889Z,91.48
2022-11-13T03:32:22.044Z,91.49
2022-11-13T03:35:09.691Z,91.53
2022-11-13T03:37:57.222Z,91.56
2022-11-13T03:40:44.788Z,91.12
2022-11-13T03:43:32.092Z,91.08
2022-11-13T03:46:19.168Z,90.88
2022-11-13T03:49:06.933Z,90.62
2022-11-13T03:51:54.136Z,90.68
2022-11-13T03:54:41.662Z,90.15
2022-11-13T03:57:29.011Z,90.25
2022-11-13T04:00:17.374Z,90.00
2022-11-13T04:03:04.902Z,90.02
2022-11-13T04:05:52.782Z,89.96
2022-11-13T04:08:39.981Z,89.95
2022-11-13T04:11:27.453Z,90.33
2022-11-13T04:14:14.440Z,90.90
2022-11-13T04:17:01.645Z,91.10
2022-11-13T04:19:49.331Z,91.06
2022-11-13T04:22:36.583Z,91.01
2022-11-13T04:25:24.862Z,90.80
2022-11-13T04:28:12.876Z,90.73
2022-11-13T04:31:00.181Z,90.85
2022-11-13T04:33:47.261Z,90.99
2022-11-13T04:36:34.392Z,90.49
2022-11-13T04:39:21.993Z,90.51
2022-11-13T04:42:29.338Z,90.80
2022-11-13T04:45:21.627Z,90.89
2022-11-13T04:48:09.152Z,91.34
2022-11-13T04:50:56.210Z,91.32
2022-11-13T04:53:43.457Z,91.41
2022-11-13T04:56:30.860Z,91.46
2022-11-13T04:59:18.473Z,91.27
2022-11-13T05:02:06.381Z,91.31
2022-11-13T05:04:53.596Z,91.39
2022-11-13T05:07:42.721Z,91.30
2022-11-13T05:10:30.254Z,91.31
2022-11-13T05:13:17.384Z,91.18
2022-11-13T05:16:06.493Z,91.07
2022-11-13T05:18:53.532Z,91.01
2022-11-13T05:21:41.132Z,91.31
2022-11-13T05:24:28.438Z,91.20
2022-11-13T05:27:17.635Z,91.03
2022-11-13T05:30:05.811Z,91.25
2022-11-13T05:32:53.856Z,91.01
2022-11-13T05:35:40.915Z,91.19
2022-11-13T05:38:30.199Z,91.24
2022-11-13T05:41:20.247Z,91.23
2022-11-13T05:44:07.544Z,91.16
2022-11-13T05:46:54.528Z,91.04
2022-11-13T05:49:41.775Z,91.10
2022-11-13T05:52:28.851Z,90.50
2022-11-13T05:55:16.053Z,90.31
2022-11-13T05:58:03.357Z,90.43
2022-11-13T06:00:51.059Z,91.04
2022-11-13T06:03:38.993Z,91.18
2022-11-13T06:06:27.011Z,91.08
2022-11-13T06:09:19.399Z,90.78
2022-11-13T06:12:06.991Z,91.12
2022-11-13T06:14:54.210Z,91.17
2022-11-13T06:17:41.364Z,91.16
2022-11-13T06:20:28.833Z,91.55
2022-11-13T06:23:16.519Z,91.56
2022-11-13T06:26:06.476Z,91.64
2022-11-13T06:28:53.766Z,91.82
2022-11-13T06:31:40.763Z,91.90
2022-11-13T06:34:28.151Z,92.13
2022-11-13T06:37:15.582Z,91.43
2022-11-13T06:40:02.992Z,91.58
2022-11-13T06:42:50.116Z,91.65
2022-11-13T06:45:37.616Z,91.46
2022-11-13T06:48:25.457Z,91.37
2022-11-13T06:51:22.284Z,91.43
2022-11-13T06:54:10.001Z,91.37
2022-11-13T06:56:57.380Z,91.46
2022-11-13T06:59:44.812Z,91.53
2022-11-13T07:02:32.329Z,91.47
2022-11-13T07:05:19.780Z,91.07
2022-11-13T07:08:07.161Z,90.54
2022-11-13T07:10:56.179Z,91.00
2022-11-13T07:13:43.372Z,90.87
2022-11-13T07:16:44.017Z,91.25
2022-11-13T07:19:19.749Z,91.26
2022-11-13T07:22:07.239Z,91.45
2022-11-13T07:24:54.688Z,91.63
2022-11-13T07:27:46.359Z,91.45
2022-11-13T07:30:33.642Z,91.31
2022-11-13T07:33:21.021Z,91.42
2022-11-13T07:36:09.164Z,91.30
2022-11-13T07:39:00.121Z,91.24
2022-11-13T07:41:45.933Z,91.04
2022-11-13T07:44:53.684Z,90.78
2022-11-13T07:47:22.229Z,90.37
2022-11-13T07:50:11.123Z,90.52
2022-11-13T07:53:00.443Z,90.59
2022-11-13T07:55:48.226Z,90.17
2022-11-13T07:58:35.294Z,89.83
2022-11-13T08:01:22.473Z,89.69
2022-11-13T08:04:09.692Z,89.28
2022-11-13T08:06:57.271Z,88.63
2022-11-13T08:09:44.676Z,88.59
2022-11-13T08:12:31.857Z,88.49
2022-11-13T08:15:19.291Z,88.62
2022-11-13T08:18:07.418Z,88.30
2022-11-13T08:20:55.137Z,88.16
2022-11-13T08:23:43.139Z,88.30
2022-11-13T08:26:30.308Z,87.72
2022-11-13T08:29:17.388Z,87.89
2022-11-13T08:32:05.356Z,87.77
2022-11-13T08:34:52.850Z,87.24
2022-11-13T08:37:40.198Z,86.40
2022-11-13T08:40:27.574Z,85.95
2022-11-13T08:43:14.791Z,86.06
2022-11-13T08:46:02.019Z,86.19
2022-11-13T08:48:49.309Z,86.25
2022-11-13T08:51:36.865Z,85.13
2022-11-13T08:54:25.078Z,84.56
2022-11-13T08:57:12.371Z,83.91
2022-11-13T08:59:59.952Z,84.05
2022-11-13T09:02:47.528Z,83.68
2022-11-13T09:05:34.329Z,82.71
2022-11-13T09:08:21.997Z,81.49
2022-11-13T09:11:08.663Z,80.86
2022-11-13T09:13:56.532Z,80.49
2022-11-13T09:16:43.888Z,79.32
2022-11-13T09:19:31.418Z,78.77
2022-11-13T09:22:18.796Z,74.17
2022-11-13T09:25:06.625Z,73.20
2022-11-13T09:27:55.683Z,69.94
2022-11-13T09:30:43.158Z,64.64
2022-11-13T09:33:30.527Z,61.05
2022-11-13T09:36:18.290Z,57.39
2022-11-13T09:39:05.976Z,56.78
2022-11-13T09:42:02.802Z,53.94
2022-11-13T09:44:56.373Z,49.94
2022-11-13T09:47:45.239Z,49.94
2022-11-13T09:50:33.733Z,50.38
2022-11-13T09:53:21.057Z,50.78
2022-11-13T09:56:28.217Z,49.22
2022-11-13T09:59:42.978Z,52.09
2022-11-13T10:02:49.805Z,48.83
2022-11-13T10:05:55.281Z,49.69
2022-11-13T10:08:45.770Z,48.25
2022-11-13T10:11:50.391Z,47.26
2022-11-13T10:14:42.319Z,47.01
2022-11-13T10:17:40.727Z,46.46
2022-11-13T10:20:33.447Z,49.00
2022-11-13T10:23:35.759Z,51.16
2022-11-13T10:26:25.652Z,48.37
2022-11-13T10:29:15.400Z,47.42
2022-11-13T10:32:23.171Z,46.83
2022-11-13T10:35:25.797Z,47.01
2022-11-13T10:38:27.673Z,48.81
2022-11-13T10:41:19.567Z,47.67
2022-11-13T10:44:09.918Z,46.98
2022-11-13T10:47:26.451Z,46.66
2022-11-13T10:50:26.792Z,47.66
2022-11-13T10:53:20.691Z,47.89
2022-11-13T10:56:16.926Z,48.79
2022-11-13T10:59:13.589Z,49.01
2022-11-13T11:02:03.567Z,49.70
2022-11-13T11:04:50.412Z,48.51
2022-11-13T11:07:42.030Z,49.04
2022-11-13T11:10:35.153Z,50.80
2022-11-13T11:13:23.870Z,49.60
2022-11-13T11:16:14.590Z,48.65
2022-11-13T11:19:04.034Z,51.65
2022-11-13T11:21:54.360Z,51.56
2022-11-13T11:24:50.671Z,52.42
2022-11-13T11:27:40.814Z,53.57
2022-11-13T11:30:30.854Z,54.19
2022-11-13T11:33:30.224Z,53.18
2022-11-13T11:36:23.769Z,53.18
2022-11-13T11:39:13.931Z,51.87
2022-11-13T11:42:33.006Z,51.87
2022-11-13T11:45:35.538Z,52.05
2022-11-13T11:48:25.775Z,52.05
2022-11-13T11:51:27.240Z,51.61
2022-11-13T11:54:38.002Z,53.48
2022-11-13T11:57:28.159Z,53.58
2022-11-13T12:00:17.576Z,54.86
2022-11-13T12:03:40.801Z,54.80
2022-11-13T12:06:33.718Z,54.75
2022-11-13T12:09:24.577Z,56.67
2022-11-13T12:12:23.047Z,54.90
2022-11-13T12:15:28.332Z,54.39
2022-11-13T12:18:43.102Z,54.35
2022-11-13T12:21:33.487Z,55.04
2022-11-13T12:24:38.566Z,55.33
2022-11-13T12:27:34.224Z,56.88
2022-11-13T12:30:24.151Z,59.14
2022-11-13T12:33:26.998Z,58.52
2022-11-13T12:36:15.060Z,59.90
2022-11-13T12:39:33.926Z,60.29
2022-11-13T12:42:36.014Z,61.30
2022-11-13T12:45:29.213Z,61.98
2022-11-13T12:48:19.616Z,62.64
2022-11-13T12:51:09.556Z,63.06
2022-11-13T12:53:57.641Z,63.96
2022-11-13T12:56:45.052Z,64.50
2022-11-13T12:59:37.704Z,64.46
2022-11-13T13:03:01.040Z,65.57
2022-11-13T13:06:06.040Z,65.39
2022-11-13T13:09:22.161Z,65.37
2022-11-13T13:12:41.048Z,65.04
2022-11-13T13:15:43.719Z,64.02
2022-11-13T13:18:33.727Z,64.25
2022-11-13T13:24:25.120Z,62.94
2022-11-13T13:27:26.767Z,63.80
2022-11-13T13:30:20.111Z,63.76
2022-11-13T13:33:16.917Z,64.59
2022-11-13T13:36:07.114Z,64.42
2022-11-13T13:39:18.579Z,65.53
2022-11-13T13:42:42.142Z,64.82
2022-11-13T13:46:04.382Z,63.88
2022-11-13T13:48:53.272Z,63.26
2022-11-13T13:51:50.067Z,64.11
2022-11-13T13:54:38.723Z,63.90
2022-11-13T13:57:27.319Z,63.34
2022-11-13T14:00:15.989Z,63.42
2022-11-13T14:03:04.164Z,64.19
2022-11-13T14:05:51.249Z,65.44
2022-11-13T14:08:38.375Z,66.61
2022-11-13T14:11:32.914Z,67.28
2022-11-13T14:14:23.127Z,67.44
2022-11-13T14:17:11.913Z,67.77
2022-11-13T14:20:01.291Z,68.18
2022-11-13T14:22:56.273Z,68.57
2022-11-13T14:25:41.494Z,68.87
2022-11-13T14:28:31.438Z,69.17
2022-11-13T14:31:18.923Z,69.22
2022-11-13T14:34:11.498Z,69.56
2022-11-13T14:37:18.281Z,69.32
2022-11-13T14:40:18.156Z,69.70
2022-11-13T14:43:07.544Z,69.56
2022-11-13T14:45:56.682Z,69.86
2022-11-13T14:48:47.217Z,70.58
2022-11-13T14:51:35.651Z,70.83
2022-11-13T14:55:08.156Z,70.84
2022-11-13T14:57:26.162Z,71.23
2022-11-13T15:00:15.798Z,70.97
2022-11-13T15:03:04.795Z,71.41
2022-11-13T15:05:52.220Z,71.33
2022-11-13T15:08:39.652Z,71.53
2022-11-13T15:11:27.510Z,72.31
2022-11-13T15:14:16.396Z,72.51
2022-11-13T15:17:03.508Z,73.03
2022-11-13T15:19:52.701Z,73.40
2022-11-13T15:22:40.625Z,73.57
2022-11-13T15:25:28.268Z,73.56
2022-11-13T15:28:15.656Z,74.27
2022-11-13T15:31:02.559Z,74.42
2022-11-13T15:33:49.761Z,75.04
2022-11-13T15:36:36.659Z,75.23
2022-11-13T15:39:24.334Z,76.35
2022-11-13T15:42:16.053Z,77.21
2022-11-13T15:45:05.441Z,77.56
2022-11-13T15:47:52.514Z,77.83
2022-11-13T15:50:39.601Z,78.17
2022-11-13T15:53:26.834Z,78.66
2022-11-13T15:56:14.524Z,79.56
2022-11-13T15:59:01.667Z,79.60
2022-11-13T16:01:51.797Z,80.27
2022-11-13T16:04:55.645Z,80.83
2022-11-13T16:07:32.233Z,80.91
2022-11-13T16:10:20.333Z,80.71
2022-11-13T16:13:07.646Z,81.23
2022-11-13T16:15:55.492Z,82.01
2022-11-13T16:18:42.671Z,81.94
2022-11-13T16:21:30.442Z,81.79
2022-11-13T16:24:21.083Z,82.88
2022-11-13T16:27:07.399Z,83.09
2022-11-13T16:29:55.007Z,83.53
2022-11-13T16:32:42.075Z,83.97
2022-11-13T16:35:29.145Z,83.67
2022-11-13T16:38:16.415Z,83.91
2022-11-13T16:41:03.840Z,83.54
2022-11-13T16:43:50.881Z,83.29
2022-11-13T16:46:41.672Z,83.30
2022-11-13T16:49:28.761Z,82.80
2022-11-13T16:52:16.537Z,83.13
2022-11-13T16:55:06.725Z,83.12
2022-11-13T16:57:53.207Z,83.58
2022-11-13T17:00:40.444Z,83.84
2022-11-13T17:03:28.166Z,84.06
2022-11-13T17:06:27.639Z,83.78
2022-11-13T17:09:15.958Z,83.72
2022-11-13T17:12:03.038Z,84.51
2022-11-13T17:14:50.466Z,82.98
2022-11-13T17:17:37.604Z,84.02
2022-11-13T17:20:24.840Z,84.30
2022-11-13T17:23:16.113Z,84.50
2022-11-13T17:26:04.691Z,84.80
2022-11-13T17:28:52.340Z,84.46
2022-11-13T17:31:39.963Z,85.09
2022-11-13T17:34:27.698Z,84.89
2022-11-13T17:37:14.916Z,85.32
2022-11-13T17:40:02.130Z,84.69
2022-11-13T17:42:49.627Z,84.91
2022-11-13T17:45:38.247Z,83.81
2022-11-13T17:48:25.428Z,84.49
2022-11-13T17:51:14.480Z,84.66
2022-11-13T17:54:01.590Z,83.93
2022-11-13T17:56:49.081Z,84.29
2022-11-13T17:59:36.656Z,83.90
2022-11-13T18:02:24.421Z,84.50
2022-11-13T18:05:11.487Z,85.42
2022-11-13T18:07:58.513Z,85.84
2022-11-13T18:10:46.180Z,85.74
2022-11-13T18:13:33.279Z,86.34
2022-11-13T18:16:23.267Z,86.31
2022-11-13T18:19:10.558Z,86.49
2022-11-13T18:21:58.267Z,86.24
2022-11-13T18:24:45.760Z,86.15
2022-11-13T18:27:32.962Z,86.49
2022-11-13T18:30:20.736Z,86.56
2022-11-13T18:33:08.221Z,86.66
2022-11-13T18:35:57.247Z,86.63
2022-11-13T18:38:44.604Z,86.75
2022-11-13T18:41:32.736Z,86.13
2022-11-13T18:44:19.943Z,85.84
2022-11-13T18:47:07.256Z,86.14
2022-11-13T18:49:54.813Z,86.15
2022-11-13T18:52:42.039Z,85.69
2022-11-13T18:55:29.373Z,84.55
2022-11-13T18:58:16.394Z,85.74
2022-11-13T19:01:20.671Z,86.25
2022-11-13T19:04:22.167Z,85.95
2022-11-13T19:06:55.044Z,86.31
2022-11-13T19:09:44.206Z,87.72
2022-11-13T19:12:31.528Z,87.74
2022-11-13T19:15:19.229Z,88.30
2022-11-13T19:18:08.063Z,88.36
2022-11-13T19:20:55.603Z,88.04
2022-11-13T19:23:43.030Z,87.76
2022-11-13T19:26:30.322Z,87.98
2022-11-13T19:29:18.253Z,88.16
2022-11-13T19:32:05.550Z,87.58
2022-11-13T19:34:52.845Z,85.74
2022-11-13T19:37:39.818Z,85.48
2022-11-13T19:40:27.366Z,86.21
2022-11-13T19:43:14.737Z,86.46
2022-11-13T19:46:13.565Z,86.97
2022-11-13T19:49:01.438Z,87.04
2022-11-13T19:51:48.859Z,87.36
2022-11-13T19:54:35.966Z,87.29
2022-11-13T19:57:23.309Z,87.32
2022-11-13T20:00:13.146Z,86.67
2022-11-13T20:03:05.034Z,87.05
2022-11-13T20:05:54.830Z,87.26
2022-11-13T20:08:42.455Z,87.88
2022-11-13T20:11:30.390Z,87.92
2022-11-13T20:14:17.866Z,88.08
2022-11-13T20:17:05.425Z,87.57
2022-11-13T20:19:52.219Z,87.46
2022-11-13T20:22:39.458Z,87.52
2022-11-13T20:25:26.834Z,87.79
2022-11-13T20:28:14.083Z,88.08
2022-11-13T20:31:10.075Z,88.33
2022-11-13T20:33:58.272Z,88.89
2022-11-13T20:36:45.607Z,88.65
2022-11-13T20:39:32.902Z,88.65
2022-11-13T20:42:20.085Z,88.77
2022-11-13T20:45:09.236Z,88.89
2022-11-13T20:47:56.341Z,88.79
2022-11-13T20:50:43.973Z,88.98
2022-11-13T20:53:30.874Z,89.17
2022-11-13T20:56:20.237Z,88.75
2022-11-13T20:59:08.017Z,88.46
2022-11-13T21:01:55.530Z,88.53
2022-11-13T21:04:43.000Z,88.54
2022-11-13T21:07:30.444Z,88.37
2022-11-13T21:10:18.180Z,88.39
2022-11-13T21:13:05.761Z,88.48
2022-11-13T21:15:53.023Z,89.22
2022-11-13T21:18:40.414Z,89.71
2022-11-13T21:21:29.090Z,89.22
2022-11-13T21:24:16.645Z,89.38
2022-11-13T21:27:04.303Z,89.75
2022-11-13T21:29:51.610Z,89.20
2022-11-13T21:32:39.653Z,89.76
2022-11-13T21:35:28.997Z,89.63
2022-11-13T21:38:15.913Z,89.88
2022-11-13T21:41:24.661Z,89.55
2022-11-13T21:44:12.332Z,90.02
2022-11-13T21:46:59.901Z,89.78
2022-11-13T21:49:47.091Z,89.60
2022-11-13T21:52:34.885Z,89.56
2022-11-13T21:55:21.906Z,89.52
2022-11-13T21:58:09.363Z,89.44
2022-11-13T22:00:56.484Z,88.83
2022-11-13T22:03:43.433Z,88.42
2022-11-13T22:06:37.184Z,88.15
2022-11-13T22:09:26.013Z,88.48
2022-11-13T22:12:13.245Z,88.91
2022-11-13T22:15:00.737Z,89.15
2022-11-13T22:17:48.433Z,88.97
2022-11-13T22:20:35.785Z,89.73
2022-11-13T22:23:23.265Z,89.71
2022-11-13T22:26:13.018Z,89.00
2022-11-13T22:29:01.091Z,90.15
2022-11-13T22:31:48.534Z,90.42
2022-11-13T22:34:35.971Z,90.32
2022-11-13T22:37:22.754Z,90.00
2022-11-13T22:40:11.143Z,90.36
2022-11-13T22:42:58.270Z,90.44
2022-11-13T22:45:45.981Z,90.84
2022-11-13T22:48:33.909Z,90.79
2022-11-13T22:51:26.779Z,90.56
2022-11-13T22:54:14.421Z,90.58
2022-11-13T22:57:03.731Z,90.29
2022-11-13T22:59:50.664Z,90.47
2022-11-13T23:02:41.844Z,90.85
2022-11-13T23:05:26.669Z,90.33
2022-11-13T23:08:14.286Z,90.81
2022-11-13T23:11:01.084Z,90.88
2022-11-13T23:13:51.020Z,91.03
2022-11-13T23:16:38.228Z,91.25
2022-11-13T23:19:25.828Z,90.78
2022-11-13T23:22:12.970Z,91.04
2022-11-13T23:25:00.901Z,91.11
2022-11-13T23:27:47.985Z,91.20
2022-11-13T23:30:35.161Z,91.40
2022-11-13T23:33:22.800Z,91.06
2022-11-13T23:36:11.740Z,91.07
2022-11-13T23:38:59.117Z,91.33
2022-11-13T23:41:46.343Z,91.27
2022-11-13T23:44:33.617Z,91.18
2022-11-13T23:47:21.214Z,90.79
2022-11-13T23:50:09.939Z,91.08
2022-11-13T23:52:57.336Z,90.70
2022-11-13T23:55:45.154Z,90.80
2022-11-13T23:58:33.196Z,90.93
